Time;durP1;ratioP1;P1;durP2;ratioP2;P2;SDS_P1;SDS_P2;PMS_P1;PMS_P2;Temp;Humidity;BMP_temperature;BMP_pressure;BME280_temperature;BME280_humidity;BME280_pressure;Samples;Min_cycle;Max_cycle;Signal;HPM_P1;HPM_P2
2022/11/26 00:02:20;;;;;;;21.70;15.70;;;5.00;99.90;;;;;;5094696;27;20043;-75
2022/11/26 00:04:47;;;;;;;28.08;15.93;;;5.00;99.90;;;;;;5145473;27;20058;-75
2022/11/26 00:07:16;;;;;;;19.25;13.07;;;5.00;99.90;;;;;;5094023;27;20047;-75
2022/11/26 00:09:42;;;;;;;22.70;16.05;;;5.00;99.90;;;;;;5110858;27;20738;-75
2022/11/26 00:12:30;;;;;;;19.50;13.30;;;5.00;99.90;;;;;;5113948;27;20043;-75
2022/11/26 00:14:55;;;;;;;35.13;21.77;;;5.00;99.90;;;;;;5111907;27;20574;-75
2022/11/26 00:17:22;;;;;;;25.00;16.05;;;5.00;99.90;;;;;;5121681;27;20039;-75
2022/11/26 00:19:48;;;;;;;23.80;14.05;;;4.90;99.90;;;;;;5110086;27;20485;-75
2022/11/26 00:22:24;;;;;;;27.45;16.00;;;5.00;99.90;;;;;;5096289;27;20046;-75
2022/11/26 00:24:51;;;;;;;22.08;14.93;;;4.90;99.90;;;;;;5116611;27;20080;-75
2022/11/26 00:27:17;;;;;;;70.13;31.33;;;4.90;99.90;;;;;;5092412;27;20046;-75
2022/11/26 00:29:43;;;;;;;20.55;14.38;;;4.90;99.90;;;;;;5114735;27;20051;-75
2022/11/26 00:32:18;;;;;;;27.08;15.48;;;4.90;99.90;;;;;;5097104;27;20070;-75
2022/11/26 00:34:44;;;;;;;23.52;15.10;;;4.90;99.90;;;;;;5115473;27;20518;-75
2022/11/26 00:37:51;;;;;;;25.25;17.48;;;4.90;99.90;;;;;;5111547;27;20522;-75
2022/11/26 00:40:30;;;;;;;22.88;14.75;;;5.00;99.90;;;;;;5110776;27;20577;-75
2022/11/26 00:42:59;;;;;;;29.60;16.77;;;4.90;99.90;;;;;;5114431;27;20043;-75
2022/11/26 00:45:31;;;;;;;52.95;28.60;;;4.90;99.90;;;;;;5108170;27;20111;-74
2022/11/26 00:47:57;;;;;;;28.45;18.23;;;4.90;99.90;;;;;;5138970;27;20612;-75
2022/11/26 00:50:25;;;;;;;33.20;21.92;;;4.90;99.90;;;;;;5126902;27;20038;-75
2022/11/26 00:52:53;;;;;;;45.78;25.08;;;4.90;99.90;;;;;;5120129;27;20046;-75
2022/11/26 00:55:32;;;;;;;25.88;17.40;;;4.90;99.90;;;;;;5098639;27;20742;-74
2022/11/26 00:58:01;;;;;;;47.75;26.92;;;4.80;99.90;;;;;;5119009;27;20173;-75
2022/11/26 01:00:30;;;;;;;25.98;15.63;;;4.80;99.90;;;;;;5108217;27;20635;-75
2022/11/26 01:02:57;;;;;;;31.05;20.30;;;4.80;99.90;;;;;;5116539;27;20099;-75
2022/11/26 01:05:25;;;;;;;35.03;21.25;;;4.90;99.90;;;;;;5116722;27;20070;-74
2022/11/26 01:07:51;;;;;;;21.38;14.90;;;4.70;99.90;;;;;;5111787;27;20035;-74
2022/11/26 01:10:22;;;;;;;46.45;26.83;;;4.70;99.90;;;;;;5107360;27;20565;-74
2022/11/26 01:12:48;;;;;;;31.17;20.05;;;4.70;99.90;;;;;;5117873;27;20051;-74
2022/11/26 01:15:15;;;;;;;55.22;34.67;;;4.70;99.90;;;;;;5120137;27;20071;-75
2022/11/26 01:17:41;;;;;;;32.28;20.65;;;4.60;99.90;;;;;;5100190;27;20050;-75
2022/11/26 01:20:25;;;;;;;31.38;21.02;;;4.60;99.90;;;;;;5112151;27;20058;-74
2022/11/26 01:22:52;;;;;;;37.17;23.98;;;4.60;99.90;;;;;;5115061;27;20079;-74
2022/11/26 01:25:19;;;;;;;30.60;21.83;;;4.60;99.90;;;;;;5101335;27;20118;-74
2022/11/26 01:27:45;;;;;;;34.83;22.73;;;4.70;99.90;;;;;;5098334;27;20607;-70
2022/11/26 01:30:20;;;;;;;25.75;16.88;;;4.60;99.90;;;;;;5110035;27;20051;-70
2022/11/26 01:32:47;;;;;;;31.60;23.38;;;4.60;99.90;;;;;;5104096;27;20086;-71
2022/11/26 01:35:14;;;;;;;32.88;23.65;;;4.60;99.90;;;;;;5118594;27;20813;-71
2022/11/26 01:37:40;;;;;;;33.03;23.42;;;4.50;99.90;;;;;;5117368;27;20035;-70
2022/11/26 01:40:24;;;;;;;51.88;34.28;;;4.60;99.90;;;;;;5096244;27;20564;-75
2022/11/26 01:43:27;;;;;;;27.70;19.85;;;4.50;99.90;;;;;;5118170;27;20050;-75
2022/11/26 01:45:56;;;;;;;27.70;18.45;;;4.60;99.90;;;;;;5097237;27;20058;-74
2022/11/26 01:48:33;;;;;;;52.30;31.88;;;4.50;99.90;;;;;;5123295;27;20083;-74
2022/11/26 01:51:09;;;;;;;67.32;39.20;;;4.50;99.90;;;;;;5115437;27;20414;-75
2022/11/26 01:54:03;;;;;;;26.05;17.58;;;4.50;99.90;;;;;;5120823;27;20079;-75
2022/11/26 01:56:49;;;;;;;53.55;35.72;;;4.50;99.90;;;;;;5117759;27;20055;-75
2022/11/26 01:59:24;;;;;;;41.72;28.00;;;4.50;99.90;;;;;;5117348;27;20038;-75
2022/11/26 02:01:52;;;;;;;29.00;21.17;;;4.50;99.90;;;;;;5093228;27;20657;-75
2022/11/26 02:04:42;;;;;;;28.38;21.98;;;4.50;99.90;;;;;;5119449;27;20047;-75
2022/11/26 02:07:08;;;;;;;30.60;23.15;;;4.60;99.90;;;;;;5104695;27;20126;-75
2022/11/26 02:09:34;;;;;;;40.00;26.85;;;4.50;99.90;;;;;;5111239;27;20125;-75
2022/11/26 02:12:00;;;;;;;67.13;40.50;;;4.50;99.90;;;;;;5085990;27;20051;-75
2022/11/26 02:14:34;;;;;;;32.03;25.35;;;4.50;99.90;;;;;;5111325;27;20055;-75
2022/11/26 02:17:13;;;;;;;55.67;35.58;;;4.50;99.90;;;;;;5158418;27;20051;-75
2022/11/26 02:19:50;;;;;;;32.45;25.65;;;4.50;99.90;;;;;;5101860;27;20050;-75
2022/11/26 02:22:50;;;;;;;38.17;26.02;;;4.50;99.90;;;;;;5123766;27;20055;-75
2022/11/26 02:25:41;;;;;;;33.92;24.85;;;4.50;99.90;;;;;;5127022;27;20541;-75
2022/11/26 02:28:26;;;;;;;31.02;23.77;;;4.50;99.90;;;;;;5122739;27;20042;-75
2022/11/26 02:31:08;;;;;;;36.67;24.25;;;4.50;99.90;;;;;;5112689;27;20042;-75
2022/11/26 02:33:55;;;;;;;30.98;23.50;;;4.50;99.90;;;;;;5123044;27;20050;-75
2022/11/26 02:36:31;;;;;;;33.65;21.40;;;4.50;99.90;;;;;;5111511;27;20054;-75
2022/11/26 02:38:57;;;;;;;45.53;30.33;;;4.50;99.90;;;;;;5124929;27;20100;-75
2022/11/26 02:41:22;;;;;;;30.73;20.70;;;4.40;99.90;;;;;;5128577;27;20043;-76
2022/11/26 02:43:48;;;;;;;40.97;27.30;;;4.40;99.90;;;;;;5127963;27;20233;-75
2022/11/26 02:46:18;;;;;;;29.67;20.15;;;4.40;99.90;;;;;;5107043;27;20385;-76
2022/11/26 02:48:49;;;;;;;23.40;18.45;;;4.40;99.90;;;;;;5124224;27;20039;-76
2022/11/26 02:51:22;;;;;;;30.00;21.05;;;4.40;99.90;;;;;;5108178;27;20111;-75
2022/11/26 02:53:49;;;;;;;27.13;18.52;;;4.40;99.90;;;;;;5105068;27;20043;-75
2022/11/26 02:56:22;;;;;;;26.23;18.02;;;4.30;99.90;;;;;;5123258;27;20059;-76
2022/11/26 02:58:49;;;;;;;22.92;16.02;;;4.30;99.90;;;;;;5137564;27;20038;-76
2022/11/26 03:01:27;;;;;;;19.67;15.75;;;4.30;99.90;;;;;;5094228;27;20150;-76
2022/11/26 03:04:10;;;;;;;27.60;19.50;;;4.20;99.90;;;;;;5100668;27;20048;-75
2022/11/26 03:06:37;;;;;;;27.70;17.02;;;4.20;99.90;;;;;;5119560;27;20051;-75
2022/11/26 03:09:04;;;;;;;25.17;17.67;;;4.20;99.90;;;;;;5109285;27;20173;-75
2022/11/26 03:11:30;;;;;;;30.95;20.60;;;4.10;99.90;;;;;;5113499;27;20042;-75
2022/11/26 03:13:56;;;;;;;29.92;20.05;;;4.20;99.90;;;;;;5106523;27;20405;-75
2022/11/26 03:16:22;;;;;;;31.50;20.95;;;4.20;99.90;;;;;;5099407;27;20035;-75
2022/11/26 03:18:47;;;;;;;62.63;32.40;;;4.20;99.90;;;;;;5111795;27;20052;-75
2022/11/26 03:21:13;;;;;;;24.30;16.88;;;4.20;99.90;;;;;;5108336;27;20027;-74
2022/11/26 03:23:39;;;;;;;25.15;18.15;;;4.20;99.90;;;;;;5126490;27;20043;-75
2022/11/26 03:26:06;;;;;;;25.83;19.10;;;4.10;99.90;;;;;;5127005;27;20085;-75
2022/11/26 03:28:31;;;;;;;23.00;15.50;;;4.10;99.90;;;;;;5120364;27;20478;-70
2022/11/26 03:30:57;;;;;;;80.07;26.67;;;4.10;99.90;;;;;;5116675;27;20073;-70
2022/11/26 03:33:23;;;;;;;38.00;19.77;;;4.10;99.90;;;;;;5102293;27;20031;-70
2022/11/26 03:35:49;;;;;;;27.67;17.30;;;4.00;99.90;;;;;;5130907;27;20093;-70
2022/11/26 03:38:15;;;;;;;24.55;18.38;;;4.00;99.90;;;;;;5097973;27;20043;-70
2022/11/26 03:40:41;;;;;;;21.73;16.42;;;4.00;99.90;;;;;;5116597;27;20070;-74
2022/11/26 03:43:07;;;;;;;48.67;28.27;;;4.00;99.90;;;;;;5131813;27;20062;-74
2022/11/26 03:45:33;;;;;;;32.03;19.35;;;4.00;99.90;;;;;;5110281;27;20060;-74
2022/11/26 03:47:59;;;;;;;31.52;20.30;;;4.00;99.90;;;;;;5122313;27;20777;-74
2022/11/26 03:50:25;;;;;;;30.33;19.67;;;3.90;99.90;;;;;;5145728;27;20039;-74
2022/11/26 03:52:51;;;;;;;35.92;21.65;;;3.90;99.90;;;;;;5139470;27;20058;-74
2022/11/26 03:55:16;;;;;;;30.45;18.58;;;3.90;99.90;;;;;;5109845;27;20113;-74
2022/11/26 03:57:42;;;;;;;27.70;18.55;;;3.90;99.90;;;;;;5112495;27;20048;-74
2022/11/26 04:00:09;;;;;;;31.52;20.70;;;3.90;99.90;;;;;;5115517;27;20124;-74
2022/11/26 04:02:35;;;;;;;37.88;22.63;;;4.00;99.90;;;;;;5116819;27;20497;-74
2022/11/26 04:05:01;;;;;;;31.45;19.67;;;4.00;99.90;;;;;;5124206;27;20050;-74
2022/11/26 04:07:27;;;;;;;31.20;21.27;;;4.00;99.90;;;;;;5100935;27;20146;-74
2022/11/26 04:09:53;;;;;;;36.90;22.88;;;4.10;99.90;;;;;;5123705;27;20047;-75
2022/11/26 04:12:19;;;;;;;23.65;16.60;;;4.00;99.90;;;;;;5110484;27;20039;-74
2022/11/26 04:14:45;;;;;;;31.03;21.63;;;4.00;99.90;;;;;;5125445;27;20039;-75
2022/11/26 04:17:11;;;;;;;43.88;27.23;;;4.00;99.90;;;;;;5114794;27;20044;-75
2022/11/26 04:19:36;;;;;;;27.00;18.88;;;4.10;99.90;;;;;;5094669;28;20367;-75
2022/11/26 04:22:02;;;;;;;41.50;23.55;;;4.00;99.90;;;;;;5109724;27;20051;-75
2022/11/26 04:24:31;;;;;;;35.42;23.73;;;4.00;99.90;;;;;;5126224;27;20059;-75
2022/11/26 04:26:56;;;;;;;24.38;17.95;;;4.00;99.90;;;;;;5100158;27;20042;-75
2022/11/26 04:29:22;;;;;;;36.22;20.85;;;4.00;99.90;;;;;;5142750;27;20480;-75
2022/11/26 04:31:48;;;;;;;27.83;19.35;;;4.00;99.90;;;;;;5102203;28;20563;-75
2022/11/26 04:34:14;;;;;;;41.23;27.37;;;3.90;99.90;;;;;;5109753;27;20064;-75
2022/11/26 04:36:40;;;;;;;29.52;20.48;;;4.00;99.90;;;;;;5117173;27;20047;-74
2022/11/26 04:39:05;;;;;;;26.55;18.75;;;3.90;99.90;;;;;;5112263;27;20039;-75
2022/11/26 04:41:31;;;;;;;28.80;19.75;;;3.90;99.90;;;;;;5092917;27;20095;-75
2022/11/26 04:43:57;;;;;;;41.25;23.27;;;3.90;99.90;;;;;;5114260;27;20043;-74
2022/11/26 04:46:23;;;;;;;36.45;22.80;;;3.90;99.90;;;;;;5115574;27;20034;-71
2022/11/26 04:48:49;;;;;;;28.38;20.55;;;3.90;99.90;;;;;;5117822;27;20080;-71
2022/11/26 04:51:15;;;;;;;50.72;29.13;;;3.90;99.90;;;;;;5113218;27;20078;-70
2022/11/26 04:53:40;;;;;;;27.42;20.95;;;3.90;99.90;;;;;;5149159;27;20386;-70
2022/11/26 04:56:06;;;;;;;37.28;25.23;;;3.90;99.90;;;;;;5118368;27;20099;-70
2022/11/26 04:58:32;;;;;;;53.75;31.60;;;3.90;99.90;;;;;;5112908;27;20068;-71
2022/11/26 05:01:01;;;;;;;51.05;28.98;;;3.90;99.90;;;;;;5108668;27;20057;-70
2022/11/26 05:03:27;;;;;;;38.72;25.58;;;3.90;99.90;;;;;;5085222;27;20489;-71
2022/11/26 05:05:53;;;;;;;48.03;31.58;;;3.90;99.90;;;;;;5119082;27;20118;-71
2022/11/26 05:08:18;;;;;;;44.00;29.63;;;3.90;99.90;;;;;;5095391;27;20491;-70
2022/11/26 05:10:44;;;;;;;54.17;35.45;;;4.00;99.90;;;;;;5100981;27;20062;-71
2022/11/26 05:13:10;;;;;;;46.22;31.60;;;4.00;99.90;;;;;;5137405;27;20063;-71
2022/11/26 05:15:36;;;;;;;51.42;35.03;;;4.10;99.90;;;;;;5109327;27;20051;-70
2022/11/26 05:18:01;;;;;;;54.97;35.00;;;4.10;99.90;;;;;;5117319;27;20051;-70
2022/11/26 05:20:27;;;;;;;54.90;38.45;;;4.10;99.90;;;;;;5123827;27;20058;-70
2022/11/26 05:22:53;;;;;;;37.65;29.52;;;4.10;99.90;;;;;;5100691;27;20047;-71
2022/11/26 05:25:19;;;;;;;54.22;36.13;;;4.00;99.90;;;;;;5118147;27;20539;-70
2022/11/26 05:27:45;;;;;;;58.22;37.83;;;4.20;99.90;;;;;;5103598;28;20057;-74
2022/11/26 05:30:11;;;;;;;52.28;36.53;;;4.10;99.90;;;;;;5131937;27;20051;-74
2022/11/26 05:32:37;;;;;;;51.13;35.15;;;4.10;99.90;;;;;;5135035;27;20490;-74
2022/11/26 05:35:03;;;;;;;50.75;35.55;;;4.10;99.90;;;;;;5123282;27;20103;-74
2022/11/26 05:37:29;;;;;;;54.33;38.80;;;4.10;99.90;;;;;;5135633;27;20118;-74
2022/11/26 05:39:54;;;;;;;51.33;35.20;;;4.10;99.90;;;;;;5111658;27;20043;-74
2022/11/26 05:42:20;;;;;;;46.25;33.17;;;4.10;99.90;;;;;;5122092;27;20506;-74
2022/11/26 05:44:46;;;;;;;65.05;42.30;;;4.10;99.90;;;;;;5084392;27;20040;-75
2022/11/26 05:47:12;;;;;;;83.63;48.42;;;4.00;99.90;;;;;;5094833;28;20050;-74
2022/11/26 05:49:38;;;;;;;76.45;47.10;;;4.10;99.90;;;;;;5109240;27;20051;-74
2022/11/26 05:52:04;;;;;;;51.67;36.95;;;4.10;99.90;;;;;;5150984;27;20095;-75
2022/11/26 05:54:29;;;;;;;52.67;36.38;;;4.10;99.90;;;;;;5144490;27;20054;-70
2022/11/26 05:56:56;;;;;;;58.50;41.08;;;4.10;99.90;;;;;;5105228;27;20138;-70
2022/11/26 05:59:23;;;;;;;53.67;37.72;;;4.10;99.90;;;;;;5108070;27;20075;-70
2022/11/26 06:01:48;;;;;;;55.20;38.35;;;4.10;99.90;;;;;;5105375;27;20055;-70
2022/11/26 06:04:14;;;;;;;65.35;43.85;;;4.10;99.90;;;;;;5081947;28;20046;-70
2022/11/26 06:06:40;;;;;;;58.00;41.75;;;4.10;99.90;;;;;;5127727;27;20418;-70
2022/11/26 06:09:06;;;;;;;51.85;38.28;;;4.10;99.90;;;;;;5139336;27;20043;-70
2022/11/26 06:11:32;;;;;;;52.72;39.42;;;4.10;99.90;;;;;;5113225;27;20130;-70
2022/11/26 06:13:57;;;;;;;53.63;37.60;;;4.10;99.90;;;;;;5110496;27;20493;-72
2022/11/26 06:16:23;;;;;;;59.97;40.35;;;4.00;99.90;;;;;;5139985;27;20050;-70
2022/11/26 06:18:49;;;;;;;56.72;42.00;;;4.10;99.90;;;;;;5107232;27;20043;-71
2022/11/26 06:21:15;;;;;;;58.45;41.08;;;4.10;99.90;;;;;;5103571;28;20043;-70
2022/11/26 06:23:40;;;;;;;67.97;44.28;;;4.10;99.90;;;;;;5095193;27;20055;-71
2022/11/26 06:26:11;;;;;;;52.83;41.63;;;4.10;99.90;;;;;;5106774;27;20123;-70
2022/11/26 06:28:38;;;;;;;65.32;46.05;;;4.10;99.90;;;;;;5115951;27;20058;-71
2022/11/26 06:31:04;;;;;;;70.15;47.58;;;4.10;99.90;;;;;;5091746;27;20423;-75
2022/11/26 06:33:30;;;;;;;68.80;42.83;;;4.10;99.90;;;;;;5091381;28;20122;-74
2022/11/26 06:36:00;;;;;;;68.00;48.28;;;4.10;99.90;;;;;;5114902;27;20047;-74
2022/11/26 06:38:27;;;;;;;70.55;47.88;;;4.10;99.90;;;;;;5095257;28;20039;-74
2022/11/26 06:40:59;;;;;;;87.90;52.30;;;4.10;99.90;;;;;;5112054;27;20069;-75
2022/11/26 06:43:26;;;;;;;71.30;46.20;;;4.10;99.90;;;;;;5130172;27;20040;-74
2022/11/26 06:45:52;;;;;;;57.35;44.45;;;4.10;99.90;;;;;;5097165;28;20051;-74
2022/11/26 06:48:21;;;;;;;71.13;47.92;;;4.00;99.90;;;;;;5115669;27;20055;-74
2022/11/26 06:50:47;;;;;;;79.70;52.17;;;4.10;99.90;;;;;;5118156;27;20150;-74
2022/11/26 06:53:13;;;;;;;58.70;45.53;;;4.00;99.90;;;;;;5137902;27;20135;-74
2022/11/26 06:55:39;;;;;;;78.47;51.78;;;4.10;99.90;;;;;;5115651;27;20113;-74
2022/11/26 06:58:04;;;;;;;89.55;56.47;;;4.00;99.90;;;;;;5071734;28;20043;-74
2022/11/26 07:00:30;;;;;;;69.05;47.50;;;4.00;99.90;;;;;;5095652;27;20040;-74
2022/11/26 07:02:56;;;;;;;60.22;41.95;;;4.00;99.90;;;;;;5120045;27;20050;-74
2022/11/26 07:05:22;;;;;;;55.72;42.13;;;4.00;99.90;;;;;;5108606;27;20077;-74
2022/11/26 07:07:50;;;;;;;67.43;47.55;;;4.00;99.90;;;;;;5114831;27;20085;-74
2022/11/26 07:10:16;;;;;;;84.18;48.88;;;4.00;99.90;;;;;;5101046;28;20083;-74
2022/11/26 07:12:41;;;;;;;109.00;55.15;;;3.90;99.90;;;;;;5109699;27;20075;-74
2022/11/26 07:15:08;;;;;;;93.55;47.30;;;3.90;99.90;;;;;;5125446;27;20103;-75
2022/11/26 07:17:34;;;;;;;180.73;74.15;;;3.90;99.90;;;;;;5107605;27;20039;-74
2022/11/26 07:20:00;;;;;;;159.50;59.55;;;3.90;99.90;;;;;;5124033;27;20077;-74
2022/11/26 07:22:25;;;;;;;142.77;66.47;;;3.90;99.90;;;;;;5102909;27;20079;-74
2022/11/26 07:24:51;;;;;;;82.15;50.00;;;3.90;99.90;;;;;;5128360;27;20043;-74
2022/11/26 07:27:17;;;;;;;75.30;50.72;;;3.90;99.90;;;;;;5115672;27;20409;-74
2022/11/26 07:29:43;;;;;;;90.00;52.38;;;3.90;99.90;;;;;;5147334;27;20469;-74
2022/11/26 07:32:09;;;;;;;134.65;61.28;;;3.90;99.90;;;;;;5112525;27;20203;-74
2022/11/26 07:34:35;;;;;;;101.00;58.17;;;3.90;99.90;;;;;;5149336;27;20574;-74
2022/11/26 07:37:01;;;;;;;83.28;52.10;;;3.90;99.90;;;;;;5134856;27;20047;-75
2022/11/26 07:39:26;;;;;;;81.00;51.42;;;3.90;99.90;;;;;;5087814;27;20059;-75
2022/11/26 07:41:52;;;;;;;63.08;45.75;;;3.90;99.90;;;;;;5155250;27;20618;-74
2022/11/26 07:44:18;;;;;;;87.35;51.97;;;4.00;99.90;;;;;;5107414;27;20082;-74
2022/11/26 07:46:44;;;;;;;58.67;42.78;;;4.00;99.90;;;;;;5113287;27;20043;-74
2022/11/26 07:49:10;;;;;;;59.17;45.38;;;4.00;99.90;;;;;;5084904;27;20077;-74
2022/11/26 07:51:35;;;;;;;69.13;45.45;;;4.10;99.90;;;;;;5122439;27;20048;-74
2022/11/26 07:54:06;;;;;;;65.20;45.70;;;4.10;99.90;;;;;;5115024;27;20620;-74
2022/11/26 07:56:33;;;;;;;65.78;45.72;;;4.20;99.90;;;;;;5119710;27;20051;-74
2022/11/26 07:59:02;;;;;;;70.15;47.58;;;4.30;99.90;;;;;;5115550;27;20425;-74
2022/11/26 08:01:31;;;;;;;72.45;45.58;;;4.30;99.90;;;;;;5113986;27;20050;-74
2022/11/26 08:03:59;;;;;;;57.47;39.85;;;4.40;99.90;;;;;;5101748;27;20166;-74
2022/11/26 08:06:27;;;;;;;82.28;49.40;;;4.40;99.90;;;;;;5112765;27;20394;-74
2022/11/26 08:08:53;;;;;;;65.07;43.47;;;4.50;99.90;;;;;;5096435;27;20405;-74
2022/11/26 08:11:22;;;;;;;69.47;44.90;;;4.60;99.90;;;;;;5121838;27;20047;-74
2022/11/26 08:13:51;;;;;;;72.10;43.50;;;4.60;99.90;;;;;;5102723;27;20051;-74
2022/11/26 08:16:17;;;;;;;67.03;42.15;;;4.60;99.90;;;;;;5104661;27;20047;-75
2022/11/26 08:18:43;;;;;;;63.80;40.83;;;4.60;99.90;;;;;;5153130;27;20055;-73
2022/11/26 08:21:09;;;;;;;60.92;41.92;;;4.70;99.90;;;;;;5122098;27;20062;-74
2022/11/26 08:23:35;;;;;;;61.72;41.05;;;4.70;99.90;;;;;;5125764;27;20055;-74
2022/11/26 08:26:09;;;;;;;82.32;46.50;;;4.70;99.90;;;;;;5109162;27;20043;-74
2022/11/26 08:28:35;;;;;;;62.72;41.15;;;4.80;99.90;;;;;;5124182;27;20059;-75
2022/11/26 08:31:03;;;;;;;67.28;43.70;;;4.80;99.90;;;;;;5117038;27;20041;-75
2022/11/26 08:33:30;;;;;;;70.20;43.45;;;4.80;99.90;;;;;;5117358;27;20590;-74
2022/11/26 08:35:56;;;;;;;61.35;43.05;;;4.80;99.90;;;;;;5123312;27;20047;-75
2022/11/26 08:38:22;;;;;;;67.07;41.95;;;4.90;99.90;;;;;;5105765;27;20066;-74
2022/11/26 08:40:48;;;;;;;57.83;39.95;;;4.90;99.90;;;;;;5090671;27;20047;-75
2022/11/26 08:43:14;;;;;;;60.33;41.53;;;5.00;99.90;;;;;;5124599;27;20065;-75
2022/11/26 08:45:40;;;;;;;77.22;44.92;;;5.00;99.90;;;;;;5106553;27;20074;-74
2022/11/26 08:48:05;;;;;;;62.35;41.05;;;5.00;99.90;;;;;;5102222;27;20043;-74
2022/11/26 08:50:33;;;;;;;64.50;41.80;;;5.10;99.90;;;;;;5113219;27;20073;-74
2022/11/26 08:52:59;;;;;;;64.75;42.03;;;5.10;99.90;;;;;;5109642;27;20126;-75
2022/11/26 08:55:25;;;;;;;98.15;56.42;;;5.10;99.90;;;;;;5112226;27;20504;-74
2022/11/26 08:57:50;;;;;;;57.92;40.35;;;5.20;99.90;;;;;;5121731;27;20063;-74
2022/11/26 09:00:17;;;;;;;58.53;41.40;;;5.30;99.90;;;;;;5120186;27;20039;-74
2022/11/26 09:02:42;;;;;;;60.13;40.08;;;5.30;99.90;;;;;;5104216;27;20062;-75
2022/11/26 09:05:08;;;;;;;57.15;40.08;;;5.40;99.90;;;;;;5109387;27;20047;-74
2022/11/26 09:07:34;;;;;;;65.20;42.75;;;5.40;99.90;;;;;;5084650;27;20138;-74
2022/11/26 09:09:59;;;;;;;59.08;39.78;;;5.50;99.90;;;;;;5104749;27;20035;-74
2022/11/26 09:12:25;;;;;;;58.92;41.45;;;5.50;99.90;;;;;;5103382;27;20046;-74
2022/11/26 09:14:51;;;;;;;59.50;38.15;;;5.60;99.90;;;;;;5114788;27;20065;-74
2022/11/26 09:17:17;;;;;;;57.35;41.88;;;5.70;99.90;;;;;;5124766;27;20235;-74
2022/11/26 09:19:45;;;;;;;60.13;40.08;;;5.70;99.90;;;;;;5091873;27;20096;-74
2022/11/26 09:22:11;;;;;;;61.40;41.05;;;5.70;99.90;;;;;;5115652;27;20114;-74
2022/11/26 09:24:37;;;;;;;51.47;39.20;;;5.80;99.90;;;;;;5122363;27;20341;-74
2022/11/26 09:27:03;;;;;;;60.65;41.30;;;5.80;99.90;;;;;;5068535;27;20500;-74
2022/11/26 09:29:32;;;;;;;66.10;46.65;;;5.80;99.90;;;;;;5120323;27;20129;-74
2022/11/26 09:31:57;;;;;;;55.67;39.70;;;5.90;99.90;;;;;;5084758;27;20084;-74
2022/11/26 09:34:23;;;;;;;67.22;45.45;;;5.90;99.90;;;;;;5105281;27;20035;-75
2022/11/26 09:36:49;;;;;;;64.32;44.95;;;6.00;99.90;;;;;;5152196;27;20390;-75
2022/11/26 09:39:15;;;;;;;67.47;46.03;;;6.00;99.90;;;;;;5081989;27;20090;-74
2022/11/26 09:42:00;;;;;;;63.03;43.42;;;6.00;99.90;;;;;;5102116;27;20045;-74
2022/11/26 09:44:45;;;;;;;66.80;46.63;;;6.10;99.90;;;;;;5112877;27;20527;-74
2022/11/26 09:47:14;;;;;;;59.95;42.05;;;6.10;99.90;;;;;;5114130;27;20051;-75
2022/11/26 09:49:46;;;;;;;56.90;40.35;;;6.20;99.90;;;;;;5146394;27;20498;-75
2022/11/26 09:52:16;;;;;;;64.55;45.80;;;6.20;99.90;;;;;;5101690;27;20059;-74
2022/11/26 09:54:43;;;;;;;59.58;41.67;;;6.30;99.90;;;;;;5111628;27;20682;-75
2022/11/26 09:57:21;;;;;;;64.30;44.00;;;6.30;99.90;;;;;;5067051;27;20046;-75
2022/11/26 09:59:49;;;;;;;71.43;46.10;;;6.40;99.90;;;;;;5114842;27;20093;-75
2022/11/26 10:02:15;;;;;;;68.82;49.42;;;6.40;99.90;;;;;;5107359;27;20124;-75
2022/11/26 10:04:41;;;;;;;65.78;47.40;;;6.40;99.90;;;;;;5136959;27;20138;-76
2022/11/26 10:07:21;;;;;;;77.95;51.00;;;6.30;99.90;;;;;;5136146;27;20819;-74
2022/11/26 10:09:54;;;;;;;71.78;50.38;;;6.50;99.90;;;;;;5118424;27;20078;-75
2022/11/26 10:12:43;;;;;;;65.72;47.33;;;6.50;99.90;;;;;;5119868;27;20087;-75
2022/11/26 10:15:46;;;;;;;73.65;51.63;;;6.50;99.90;;;;;;5113527;27;20734;-75
2022/11/26 10:18:39;;;;;;;58.22;42.88;;;6.50;99.90;;;;;;5111869;27;20417;-75
2022/11/26 10:21:28;;;;;;;65.35;48.92;;;6.60;99.90;;;;;;5099878;27;20504;-75
2022/11/26 10:24:10;;;;;;;67.93;48.93;;;6.70;99.90;;;;;;5132393;27;20051;-75
2022/11/26 10:26:38;;;;;;;67.53;48.00;;;6.70;99.90;;;;;;5117603;27;20066;-75
2022/11/26 10:29:22;;;;;;;65.28;47.90;;;6.70;99.90;;;;;;5096207;27;20508;-75
2022/11/26 10:31:52;;;;;;;69.25;47.50;;;6.80;99.90;;;;;;5117961;27;20055;-75
2022/11/26 10:34:41;;;;;;;63.37;48.03;;;6.80;99.90;;;;;;5115790;27;20095;-75
2022/11/26 10:37:07;;;;;;;67.82;47.17;;;6.90;99.90;;;;;;5102362;27;20319;-75
2022/11/26 10:39:33;;;;;;;74.82;53.45;;;6.90;99.90;;;;;;5113077;27;20057;-75
2022/11/26 10:42:15;;;;;;;60.35;46.35;;;7.00;99.90;;;;;;5099364;27;20040;-75
2022/11/26 10:44:41;;;;;;;60.75;48.22;;;7.00;99.90;;;;;;5121898;27;20557;-75
2022/11/26 10:47:23;;;;;;;71.70;50.65;;;7.00;99.90;;;;;;5105244;27;20043;-75
2022/11/26 10:49:50;;;;;;;66.53;47.58;;;7.10;99.90;;;;;;5103066;27;20759;-75
2022/11/26 10:52:26;;;;;;;68.38;47.55;;;7.10;99.90;;;;;;5123250;27;20538;-75
2022/11/26 10:55:20;;;;;;;66.57;47.80;;;7.10;99.90;;;;;;5120202;27;20563;-76
2022/11/26 10:57:56;;;;;;;61.65;46.88;;;7.20;99.90;;;;;;5120309;27;20435;-75
2022/11/26 11:00:49;;;;;;;68.72;48.95;;;7.20;99.90;;;;;;5103289;27;20051;-75
2022/11/26 11:03:24;;;;;;;67.50;49.80;;;7.20;99.90;;;;;;5126417;27;20165;-75
2022/11/26 11:05:50;;;;;;;67.43;50.45;;;7.20;99.90;;;;;;5111052;27;20544;-75
2022/11/26 11:08:32;;;;;;;61.50;45.50;;;7.30;99.90;;;;;;5118949;27;20063;-74
2022/11/26 11:11:00;;;;;;;68.95;48.45;;;7.30;99.90;;;;;;5106083;27;20062;-77
2022/11/26 11:13:43;;;;;;;67.55;48.60;;;7.40;99.90;;;;;;5101118;27;20150;-77
2022/11/26 11:16:11;;;;;;;84.85;57.47;;;7.40;99.90;;;;;;5117882;27;20122;-77
2022/11/26 11:18:45;;;;;;;78.40;54.03;;;7.40;99.90;;;;;;5113104;27;20397;-77
2022/11/26 11:21:16;;;;;;;71.38;55.35;;;7.40;99.90;;;;;;5106807;27;20306;-75
2022/11/26 11:23:42;;;;;;;82.47;55.53;;;7.40;99.90;;;;;;5118976;27;20047;-75
2022/11/26 11:26:12;;;;;;;81.05;55.45;;;7.40;99.90;;;;;;5122497;27;20054;-76
2022/11/26 11:28:41;;;;;;;87.53;58.90;;;7.40;99.90;;;;;;5101345;27;20050;-75
2022/11/26 11:31:13;;;;;;;76.75;54.13;;;7.50;99.90;;;;;;5091293;27;20492;-75
2022/11/26 11:33:39;;;;;;;77.05;53.67;;;7.50;99.90;;;;;;5119859;27;20561;-76
2022/11/26 11:36:14;;;;;;;79.57;55.10;;;7.50;99.90;;;;;;5121316;27;20043;-75
2022/11/26 11:38:51;;;;;;;80.07;54.13;;;7.50;99.90;;;;;;5122795;27;20043;-76
2022/11/26 11:41:19;;;;;;;81.93;54.22;;;7.50;99.90;;;;;;5123429;27;20463;-76
2022/11/26 11:43:45;;;;;;;85.75;55.05;;;7.60;99.90;;;;;;5125222;27;20194;-75
2022/11/26 11:46:49;;;;;;;77.30;52.63;;;7.60;99.90;;;;;;5085382;27;20453;-76
2022/11/26 11:49:25;;;;;;;88.88;57.17;;;7.70;99.90;;;;;;5103000;27;20051;-76
2022/11/26 11:52:13;;;;;;;71.55;46.97;;;7.70;99.90;;;;;;5092784;27;20433;-76
2022/11/26 11:54:59;;;;;;;69.90;49.15;;;7.70;99.90;;;;;;5136619;27;20059;-76
2022/11/26 11:57:52;;;;;;;71.18;48.25;;;7.80;99.90;;;;;;5108583;27;20058;-76
2022/11/26 12:00:22;;;;;;;65.82;45.22;;;7.90;99.90;;;;;;5114505;27;20075;-75
2022/11/26 12:03:06;;;;;;;60.97;43.17;;;8.00;99.90;;;;;;5121560;27;20118;-76
2022/11/26 12:06:14;;;;;;;75.38;46.13;;;8.10;99.90;;;;;;5114844;27;20043;-76
2022/11/26 12:08:47;;;;;;;60.33;42.97;;;8.10;99.90;;;;;;5116716;27;20088;-75
2022/11/26 12:11:25;;;;;;;52.75;39.28;;;8.20;99.90;;;;;;5110879;27;20047;-76
2022/11/26 12:13:59;;;;;;;61.65;44.22;;;8.20;99.90;;;;;;5098325;27;20516;-76
2022/11/26 12:16:29;;;;;;;62.50;44.95;;;8.30;99.90;;;;;;5107223;27;20397;-75
2022/11/26 12:19:08;;;;;;;59.75;40.85;;;8.30;99.90;;;;;;5145345;27;20039;-76
2022/11/26 12:21:53;;;;;;;56.25;38.53;;;8.30;99.90;;;;;;5115065;27;20058;-76
2022/11/26 12:24:48;;;;;;;60.10;39.92;;;8.40;99.90;;;;;;5129491;27;20141;-77
2022/11/26 12:27:31;;;;;;;55.30;36.17;;;8.40;99.90;;;;;;5105363;27;20158;-75
2022/11/26 12:30:19;;;;;;;55.60;37.58;;;8.40;99.90;;;;;;5113140;27;20060;-76
2022/11/26 12:33:33;;;;;;;51.70;33.67;;;8.40;99.90;;;;;;5110885;27;20071;-76
2022/11/26 12:36:10;;;;;;;50.00;35.80;;;8.50;99.90;;;;;;5050859;28;20044;-73
2022/11/26 12:38:43;;;;;;;50.25;33.63;;;8.50;99.90;;;;;;5111715;27;20043;-70
2022/11/26 12:41:18;;;;;;;52.00;36.47;;;8.50;99.90;;;;;;5105411;27;20431;-70
2022/11/26 12:44:04;;;;;;;58.70;34.78;;;8.50;99.90;;;;;;5148810;27;20047;-71
2022/11/26 12:46:49;;;;;;;50.30;32.63;;;8.60;99.90;;;;;;5097548;27;20052;-70
2022/11/26 12:49:59;;;;;;;49.33;31.73;;;8.60;99.90;;;;;;5143784;27;20047;-70
2022/11/26 12:52:56;;;;;;;50.22;32.60;;;8.60;99.90;;;;;;5069209;28;20040;-71
2022/11/26 12:55:34;;;;;;;45.33;29.88;;;8.60;99.90;;;;;;5127576;27;20083;-76